sensor_id;sensor_type;location;lat;lon;timestamp;P1;durP1;ratioP1;P2;durP2;ratioP2
9052;SDS011;4561;47.450;7.516;2022-12-18T00:00:49;371.10;;;36.47;;
9052;SDS011;4561;47.450;7.516;2022-12-18T00:04:15;45.13;;;31.23;;
9052;SDS011;4561;47.450;7.516;2022-12-18T00:07:41;56.10;;;36.40;;
9052;SDS011;4561;47.450;7.516;2022-12-18T00:11:05;56.73;;;37.87;;
9052;SDS011;4561;47.450;7.516;2022-12-18T00:14:26;50.03;;;35.43;;
9052;SDS011;4561;47.450;7.516;2022-12-18T00:17:46;48.37;;;34.87;;
9052;SDS011;4561;47.450;7.516;2022-12-18T00:21:07;55.77;;;38.13;;
9052;SDS011;4561;47.450;7.516;2022-12-18T00:24:29;50.33;;;35.77;;
9052;SDS011;4561;47.450;7.516;2022-12-18T00:27:49;47.40;;;32.50;;
9052;SDS011;4561;47.450;7.516;2022-12-18T00:31:11;40.70;;;28.30;;
9052;SDS011;4561;47.450;7.516;2022-12-18T00:34:35;98.97;;;30.50;;
9052;SDS011;4561;47.450;7.516;2022-12-18T00:37:56;156.27;;;31.53;;
9052;SDS011;4561;47.450;7.516;2022-12-18T00:41:19;804.60;;;52.83;;
9052;SDS011;4561;47.450;7.516;2022-12-18T00:44:58;1256.60;;;68.33;;
9052;SDS011;4561;47.450;7.516;2022-12-18T00:48:19;645.63;;;46.33;;
9052;SDS011;4561;47.450;7.516;2022-12-18T00:51:39;453.93;;;38.10;;
9052;SDS011;4561;47.450;7.516;2022-12-18T00:55:00;73.23;;;28.27;;
9052;SDS011;4561;47.450;7.516;2022-12-18T00:58:20;37.90;;;27.80;;
9052;SDS011;4561;47.450;7.516;2022-12-18T01:01:41;49.73;;;34.40;;
9052;SDS011;4561;47.450;7.516;2022-12-18T01:05:01;51.97;;;35.00;;
9052;SDS011;4561;47.450;7.516;2022-12-18T01:08:22;39.60;;;29.00;;
9052;SDS011;4561;47.450;7.516;2022-12-18T01:11:42;45.27;;;30.80;;
9052;SDS011;4561;47.450;7.516;2022-12-18T01:15:03;44.27;;;31.80;;
9052;SDS011;4561;47.450;7.516;2022-12-18T01:18:27;38.23;;;28.63;;
9052;SDS011;4561;47.450;7.516;2022-12-18T01:21:47;35.90;;;26.60;;
9052;SDS011;4561;47.450;7.516;2022-12-18T01:25:08;455.10;;;41.30;;
9052;SDS011;4561;47.450;7.516;2022-12-18T01:28:28;1132.10;;;72.67;;
9052;SDS011;4561;47.450;7.516;2022-12-18T01:31:49;1141.60;;;70.30;;
9052;SDS011;4561;47.450;7.516;2022-12-18T01:35:09;788.27;;;52.50;;
9052;SDS011;4561;47.450;7.516;2022-12-18T01:38:29;1239.77;;;72.27;;
9052;SDS011;4561;47.450;7.516;2022-12-18T01:41:50;1570.17;;;88.77;;
9052;SDS011;4561;47.450;7.516;2022-12-18T01:45:30;869.20;;;60.90;;
9052;SDS011;4561;47.450;7.516;2022-12-18T01:48:58;918.73;;;58.60;;
9052;SDS011;4561;47.450;7.516;2022-12-18T01:52:22;1149.10;;;68.73;;
9052;SDS011;4561;47.450;7.516;2022-12-18T01:55:55;636.50;;;49.37;;
9052;SDS011;4561;47.450;7.516;2022-12-18T01:59:18;631.10;;;48.30;;
9052;SDS011;4561;47.450;7.516;2022-12-18T02:02:40;402.70;;;48.83;;
9052;SDS011;4561;47.450;7.516;2022-12-18T02:06:09;112.10;;;34.83;;
9052;SDS011;4561;47.450;7.516;2022-12-18T02:09:34;49.40;;;31.50;;
9052;SDS011;4561;47.450;7.516;2022-12-18T02:13:40;54.17;;;32.63;;
9052;SDS011;4561;47.450;7.516;2022-12-18T02:20:12;50.80;;;32.33;;
9052;SDS011;4561;47.450;7.516;2022-12-18T02:23:40;42.37;;;29.30;;
9052;SDS011;4561;47.450;7.516;2022-12-18T02:27:27;73.10;;;31.90;;
9052;SDS011;4561;47.450;7.516;2022-12-18T02:30:49;345.10;;;38.33;;
9052;SDS011;4561;47.450;7.516;2022-12-18T02:34:13;438.67;;;40.10;;
9052;SDS011;4561;47.450;7.516;2022-12-18T02:37:34;378.03;;;38.40;;
9052;SDS011;4561;47.450;7.516;2022-12-18T02:40:55;326.80;;;34.37;;
9052;SDS011;4561;47.450;7.516;2022-12-18T02:44:16;650.70;;;46.77;;
9052;SDS011;4561;47.450;7.516;2022-12-18T02:47:51;166.33;;;32.50;;
9052;SDS011;4561;47.450;7.516;2022-12-18T02:51:17;334.60;;;34.47;;
9052;SDS011;4561;47.450;7.516;2022-12-18T02:55:28;273.10;;;31.07;;
9052;SDS011;4561;47.450;7.516;2022-12-18T03:02:26;250.83;;;30.73;;
9052;SDS011;4561;47.450;7.516;2022-12-18T03:05:55;135.83;;;30.47;;
9052;SDS011;4561;47.450;7.516;2022-12-18T03:09:19;255.37;;;34.70;;
9052;SDS011;4561;47.450;7.516;2022-12-18T03:12:47;478.83;;;42.67;;
9052;SDS011;4561;47.450;7.516;2022-12-18T03:16:22;753.47;;;53.67;;
9052;SDS011;4561;47.450;7.516;2022-12-18T03:19:46;550.43;;;46.60;;
9052;SDS011;4561;47.450;7.516;2022-12-18T03:23:13;853.20;;;59.27;;
9052;SDS011;4561;47.450;7.516;2022-12-18T03:26:37;701.03;;;51.23;;
9052;SDS011;4561;47.450;7.516;2022-12-18T03:30:07;686.90;;;51.80;;
9052;SDS011;4561;47.450;7.516;2022-12-18T03:33:34;646.90;;;57.20;;
9052;SDS011;4561;47.450;7.516;2022-12-18T03:36:58;376.60;;;42.63;;
9052;SDS011;4561;47.450;7.516;2022-12-18T03:40:20;295.53;;;39.27;;
9052;SDS011;4561;47.450;7.516;2022-12-18T03:51:13;391.10;;;42.73;;
9052;SDS011;4561;47.450;7.516;2022-12-18T03:54:37;486.30;;;46.43;;
9052;SDS011;4561;47.450;7.516;2022-12-18T03:57:59;639.77;;;52.00;;
9052;SDS011;4561;47.450;7.516;2022-12-18T04:01:22;823.83;;;53.90;;
9052;SDS011;4561;47.450;7.516;2022-12-18T04:04:49;543.80;;;46.30;;
9052;SDS011;4561;47.450;7.516;2022-12-18T04:08:11;584.83;;;47.77;;
9052;SDS011;4561;47.450;7.516;2022-12-18T04:11:34;396.17;;;47.73;;
9052;SDS011;4561;47.450;7.516;2022-12-18T04:14:55;142.20;;;38.90;;
9052;SDS011;4561;47.450;7.516;2022-12-18T04:18:15;238.90;;;37.57;;
9052;SDS011;4561;47.450;7.516;2022-12-18T04:21:38;95.67;;;34.13;;
9052;SDS011;4561;47.450;7.516;2022-12-18T04:24:58;200.70;;;34.07;;
9052;SDS011;4561;47.450;7.516;2022-12-18T04:28:18;317.60;;;36.67;;
9052;SDS011;4561;47.450;7.516;2022-12-18T04:31:41;72.70;;;30.97;;
9052;SDS011;4561;47.450;7.516;2022-12-18T04:35:02;299.83;;;33.67;;
9052;SDS011;4561;47.450;7.516;2022-12-18T04:38:24;160.50;;;31.70;;
9052;SDS011;4561;47.450;7.516;2022-12-18T04:41:44;268.37;;;32.67;;
9052;SDS011;4561;47.450;7.516;2022-12-18T04:45:07;300.63;;;34.97;;
9052;SDS011;4561;47.450;7.516;2022-12-18T04:48:28;220.17;;;32.20;;
9052;SDS011;4561;47.450;7.516;2022-12-18T04:51:48;102.10;;;30.33;;
9052;SDS011;4561;47.450;7.516;2022-12-18T04:55:09;59.50;;;27.67;;
9052;SDS011;4561;47.450;7.516;2022-12-18T04:58:32;31.67;;;23.00;;
9052;SDS011;4561;47.450;7.516;2022-12-18T05:01:52;27.27;;;20.30;;
9052;SDS011;4561;47.450;7.516;2022-12-18T05:05:15;28.33;;;20.10;;
9052;SDS011;4561;47.450;7.516;2022-12-18T05:08:35;29.03;;;21.10;;
9052;SDS011;4561;47.450;7.516;2022-12-18T05:11:56;28.63;;;21.13;;
9052;SDS011;4561;47.450;7.516;2022-12-18T05:15:16;26.03;;;20.33;;
9052;SDS011;4561;47.450;7.516;2022-12-18T05:18:37;25.07;;;19.13;;
9052;SDS011;4561;47.450;7.516;2022-12-18T05:21:57;22.97;;;17.87;;
9052;SDS011;4561;47.450;7.516;2022-12-18T05:25:20;23.20;;;18.50;;
9052;SDS011;4561;47.450;7.516;2022-12-18T05:28:43;22.87;;;17.07;;
9052;SDS011;4561;47.450;7.516;2022-12-18T05:32:04;21.23;;;17.60;;
9052;SDS011;4561;47.450;7.516;2022-12-18T05:35:24;27.60;;;20.33;;
9052;SDS011;4561;47.450;7.516;2022-12-18T05:38:47;34.17;;;23.23;;
9052;SDS011;4561;47.450;7.516;2022-12-18T05:42:09;35.10;;;24.80;;
9052;SDS011;4561;47.450;7.516;2022-12-18T05:45:29;34.40;;;25.20;;
9052;SDS011;4561;47.450;7.516;2022-12-18T05:48:50;30.53;;;22.63;;
9052;SDS011;4561;47.450;7.516;2022-12-18T05:52:10;29.00;;;21.27;;
9052;SDS011;4561;47.450;7.516;2022-12-18T05:55:34;31.57;;;22.10;;
9052;SDS011;4561;47.450;7.516;2022-12-18T05:58:55;41.00;;;28.13;;
9052;SDS011;4561;47.450;7.516;2022-12-18T06:02:15;43.47;;;27.77;;
9052;SDS011;4561;47.450;7.516;2022-12-18T06:05:36;45.03;;;27.90;;
9052;SDS011;4561;47.450;7.516;2022-12-18T06:08:58;34.77;;;24.27;;
9052;SDS011;4561;47.450;7.516;2022-12-18T06:12:28;40.87;;;27.00;;
9052;SDS011;4561;47.450;7.516;2022-12-18T06:15:48;37.97;;;26.10;;
9052;SDS011;4561;47.450;7.516;2022-12-18T06:19:13;37.90;;;25.23;;
9052;SDS011;4561;47.450;7.516;2022-12-18T06:22:37;37.47;;;25.03;;
9052;SDS011;4561;47.450;7.516;2022-12-18T06:25:57;37.93;;;25.77;;
9052;SDS011;4561;47.450;7.516;2022-12-18T06:29:18;37.97;;;25.47;;
9052;SDS011;4561;47.450;7.516;2022-12-18T06:32:38;35.53;;;24.67;;
9052;SDS011;4561;47.450;7.516;2022-12-18T06:36:03;33.10;;;22.60;;
9052;SDS011;4561;47.450;7.516;2022-12-18T06:39:33;28.80;;;21.07;;
9052;SDS011;4561;47.450;7.516;2022-12-18T06:42:53;34.33;;;24.90;;
9052;SDS011;4561;47.450;7.516;2022-12-18T06:46:14;49.10;;;30.33;;
9052;SDS011;4561;47.450;7.516;2022-12-18T06:49:34;49.30;;;31.43;;
9052;SDS011;4561;47.450;7.516;2022-12-18T06:52:55;43.53;;;29.33;;
9052;SDS011;4561;47.450;7.516;2022-12-18T06:56:15;44.43;;;29.37;;
9052;SDS011;4561;47.450;7.516;2022-12-18T06:59:38;110.87;;;31.97;;
9052;SDS011;4561;47.450;7.516;2022-12-18T07:02:58;410.90;;;42.60;;
9052;SDS011;4561;47.450;7.516;2022-12-18T07:06:19;46.73;;;29.13;;
9052;SDS011;4561;47.450;7.516;2022-12-18T07:09:41;68.87;;;30.50;;
9052;SDS011;4561;47.450;7.516;2022-12-18T07:13:01;58.50;;;31.10;;
9052;SDS011;4561;47.450;7.516;2022-12-18T07:16:21;57.03;;;31.80;;
9052;SDS011;4561;47.450;7.516;2022-12-18T07:19:42;62.43;;;31.03;;
9052;SDS011;4561;47.450;7.516;2022-12-18T07:23:03;59.37;;;28.80;;
9052;SDS011;4561;47.450;7.516;2022-12-18T07:26:26;43.73;;;27.70;;
9052;SDS011;4561;47.450;7.516;2022-12-18T07:29:46;36.80;;;24.90;;
9052;SDS011;4561;47.450;7.516;2022-12-18T07:33:06;38.20;;;25.33;;
9052;SDS011;4561;47.450;7.516;2022-12-18T07:36:30;199.77;;;32.73;;
9052;SDS011;4561;47.450;7.516;2022-12-18T07:39:50;172.43;;;33.13;;
9052;SDS011;4561;47.450;7.516;2022-12-18T07:43:13;73.83;;;32.07;;
9052;SDS011;4561;47.450;7.516;2022-12-18T07:46:36;63.40;;;31.20;;
9052;SDS011;4561;47.450;7.516;2022-12-18T07:49:56;49.50;;;29.77;;
9052;SDS011;4561;47.450;7.516;2022-12-18T07:53:19;70.57;;;32.00;;
9052;SDS011;4561;47.450;7.516;2022-12-18T07:56:39;80.00;;;47.10;;
9052;SDS011;4561;47.450;7.516;2022-12-18T08:00:03;63.43;;;41.67;;
9052;SDS011;4561;47.450;7.516;2022-12-18T08:03:23;59.00;;;31.93;;
9052;SDS011;4561;47.450;7.516;2022-12-18T08:06:44;63.93;;;33.33;;
9052;SDS011;4561;47.450;7.516;2022-12-18T08:10:07;97.47;;;36.03;;
9052;SDS011;4561;47.450;7.516;2022-12-18T08:13:28;68.70;;;32.53;;
9052;SDS011;4561;47.450;7.516;2022-12-18T08:16:49;70.37;;;34.47;;
9052;SDS011;4561;47.450;7.516;2022-12-18T08:20:12;78.27;;;35.43;;
9052;SDS011;4561;47.450;7.516;2022-12-18T08:23:35;63.77;;;33.67;;
9052;SDS011;4561;47.450;7.516;2022-12-18T08:26:57;85.97;;;33.97;;
9052;SDS011;4561;47.450;7.516;2022-12-18T08:30:20;79.40;;;36.93;;
9052;SDS011;4561;47.450;7.516;2022-12-18T08:33:41;122.90;;;36.70;;
9052;SDS011;4561;47.450;7.516;2022-12-18T08:37:04;168.73;;;39.13;;
9052;SDS011;4561;47.450;7.516;2022-12-18T08:40:24;83.43;;;34.57;;
9052;SDS011;4561;47.450;7.516;2022-12-18T08:43:47;150.50;;;41.60;;
9052;SDS011;4561;47.450;7.516;2022-12-18T08:47:25;54.17;;;31.30;;
9052;SDS011;4561;47.450;7.516;2022-12-18T08:50:55;47.13;;;29.73;;
9052;SDS011;4561;47.450;7.516;2022-12-18T08:54:18;37.37;;;27.07;;
9052;SDS011;4561;47.450;7.516;2022-12-18T08:57:39;37.37;;;25.83;;
9052;SDS011;4561;47.450;7.516;2022-12-18T09:01:03;37.87;;;26.43;;
9052;SDS011;4561;47.450;7.516;2022-12-18T09:04:24;37.47;;;24.87;;
9052;SDS011;4561;47.450;7.516;2022-12-18T09:07:47;37.23;;;25.20;;
9052;SDS011;4561;47.450;7.516;2022-12-18T09:11:15;34.50;;;23.80;;
9052;SDS011;4561;47.450;7.516;2022-12-18T09:14:41;31.63;;;23.63;;
9052;SDS011;4561;47.450;7.516;2022-12-18T09:18:01;35.60;;;24.80;;
9052;SDS011;4561;47.450;7.516;2022-12-18T09:21:22;32.60;;;23.90;;
9052;SDS011;4561;47.450;7.516;2022-12-18T09:24:42;34.63;;;24.67;;
9052;SDS011;4561;47.450;7.516;2022-12-18T09:28:03;36.43;;;25.97;;
9052;SDS011;4561;47.450;7.516;2022-12-18T09:31:29;35.10;;;25.93;;
9052;SDS011;4561;47.450;7.516;2022-12-18T09:34:50;34.23;;;25.33;;
9052;SDS011;4561;47.450;7.516;2022-12-18T09:38:14;34.17;;;26.07;;
9052;SDS011;4561;47.450;7.516;2022-12-18T09:41:54;37.27;;;26.37;;
9052;SDS011;4561;47.450;7.516;2022-12-18T09:45:19;37.63;;;26.40;;
9052;SDS011;4561;47.450;7.516;2022-12-18T09:48:41;34.60;;;25.90;;
9052;SDS011;4561;47.450;7.516;2022-12-18T09:52:23;37.13;;;27.60;;
9052;SDS011;4561;47.450;7.516;2022-12-18T09:55:51;33.33;;;25.37;;
9052;SDS011;4561;47.450;7.516;2022-12-18T09:59:20;36.33;;;26.50;;
9052;SDS011;4561;47.450;7.516;2022-12-18T10:02:43;35.87;;;27.00;;
9052;SDS011;4561;47.450;7.516;2022-12-18T10:06:10;34.70;;;26.53;;
9052;SDS011;4561;47.450;7.516;2022-12-18T10:23:39;39.10;;;28.67;;
9052;SDS011;4561;47.450;7.516;2022-12-18T10:27:15;40.00;;;28.90;;
9052;SDS011;4561;47.450;7.516;2022-12-18T10:30:39;41.77;;;29.23;;
9052;SDS011;4561;47.450;7.516;2022-12-18T10:34:03;43.40;;;31.93;;
9052;SDS011;4561;47.450;7.516;2022-12-18T10:37:24;41.33;;;30.40;;
9052;SDS011;4561;47.450;7.516;2022-12-18T10:40:53;44.70;;;30.27;;
9052;SDS011;4561;47.450;7.516;2022-12-18T10:44:31;45.70;;;31.57;;
9052;SDS011;4561;47.450;7.516;2022-12-18T10:47:51;44.23;;;30.87;;
9052;SDS011;4561;47.450;7.516;2022-12-18T10:54:55;43.40;;;30.80;;
9052;SDS011;4561;47.450;7.516;2022-12-18T11:05:26;47.03;;;32.63;;
9052;SDS011;4561;47.450;7.516;2022-12-18T11:09:04;46.60;;;32.10;;
9052;SDS011;4561;47.450;7.516;2022-12-18T11:12:41;43.40;;;31.13;;
9052;SDS011;4561;47.450;7.516;2022-12-18T11:16:02;47.63;;;35.33;;
9052;SDS011;4561;47.450;7.516;2022-12-18T11:19:29;43.93;;;32.53;;
9052;SDS011;4561;47.450;7.516;2022-12-18T11:23:04;46.83;;;34.47;;
9052;SDS011;4561;47.450;7.516;2022-12-18T11:26:33;56.77;;;41.57;;
9052;SDS011;4561;47.450;7.516;2022-12-18T11:37:22;42.93;;;34.03;;
9052;SDS011;4561;47.450;7.516;2022-12-18T11:40:44;43.23;;;33.40;;
9052;SDS011;4561;47.450;7.516;2022-12-18T11:44:09;42.23;;;32.90;;
9052;SDS011;4561;47.450;7.516;2022-12-18T11:51:05;42.63;;;31.50;;
9052;SDS011;4561;47.450;7.516;2022-12-18T11:54:31;34.40;;;25.80;;
9052;SDS011;4561;47.450;7.516;2022-12-18T11:58:07;49.07;;;33.97;;
9052;SDS011;4561;47.450;7.516;2022-12-18T12:01:38;44.90;;;33.40;;
9052;SDS011;4561;47.450;7.516;2022-12-18T12:12:51;48.60;;;35.07;;
9052;SDS011;4561;47.450;7.516;2022-12-18T12:35:12;51.57;;;35.03;;
9052;SDS011;4561;47.450;7.516;2022-12-18T12:38:47;49.17;;;34.40;;
9052;SDS011;4561;47.450;7.516;2022-12-18T12:42:18;44.33;;;31.50;;
9052;SDS011;4561;47.450;7.516;2022-12-18T12:46:05;46.57;;;31.60;;
9052;SDS011;4561;47.450;7.516;2022-12-18T12:49:30;47.73;;;30.00;;
9052;SDS011;4561;47.450;7.516;2022-12-18T12:52:52;35.10;;;25.57;;
9052;SDS011;4561;47.450;7.516;2022-12-18T12:56:15;40.40;;;29.00;;
9052;SDS011;4561;47.450;7.516;2022-12-18T13:03:31;22.03;;;17.23;;
9052;SDS011;4561;47.450;7.516;2022-12-18T13:10:34;56.00;;;37.10;;
9052;SDS011;4561;47.450;7.516;2022-12-18T13:13:59;56.57;;;37.30;;
9052;SDS011;4561;47.450;7.516;2022-12-18T13:20:47;60.17;;;39.53;;
9052;SDS011;4561;47.450;7.516;2022-12-18T13:24:22;56.47;;;37.20;;
9052;SDS011;4561;47.450;7.516;2022-12-18T13:31:04;60.37;;;41.30;;
9052;SDS011;4561;47.450;7.516;2022-12-18T13:34:27;63.20;;;41.87;;
9052;SDS011;4561;47.450;7.516;2022-12-18T13:37:52;62.57;;;41.77;;
9052;SDS011;4561;47.450;7.516;2022-12-18T13:44:37;60.27;;;41.63;;
9052;SDS011;4561;47.450;7.516;2022-12-18T13:48:00;30.40;;;22.73;;
9052;SDS011;4561;47.450;7.516;2022-12-18T13:51:20;48.43;;;34.50;;
9052;SDS011;4561;47.450;7.516;2022-12-18T13:54:41;36.53;;;26.47;;
9052;SDS011;4561;47.450;7.516;2022-12-18T13:58:03;36.30;;;26.10;;
9052;SDS011;4561;47.450;7.516;2022-12-18T14:01:24;28.60;;;20.53;;
9052;SDS011;4561;47.450;7.516;2022-12-18T14:04:48;22.43;;;17.80;;
9052;SDS011;4561;47.450;7.516;2022-12-18T14:08:13;26.57;;;20.27;;
9052;SDS011;4561;47.450;7.516;2022-12-18T14:11:34;26.10;;;19.20;;
9052;SDS011;4561;47.450;7.516;2022-12-18T14:14:55;48.87;;;34.63;;
9052;SDS011;4561;47.450;7.516;2022-12-18T14:21:48;50.33;;;35.30;;
9052;SDS011;4561;47.450;7.516;2022-12-18T14:28:33;56.77;;;37.17;;
9052;SDS011;4561;47.450;7.516;2022-12-18T14:32:12;55.97;;;37.33;;
9052;SDS011;4561;47.450;7.516;2022-12-18T14:35:58;49.80;;;34.50;;
9052;SDS011;4561;47.450;7.516;2022-12-18T14:39:18;49.03;;;33.70;;
9052;SDS011;4561;47.450;7.516;2022-12-18T14:42:39;45.40;;;32.13;;
9052;SDS011;4561;47.450;7.516;2022-12-18T14:45:59;52.33;;;35.37;;
9052;SDS011;4561;47.450;7.516;2022-12-18T14:52:50;61.00;;;44.03;;
9052;SDS011;4561;47.450;7.516;2022-12-18T14:56:32;47.93;;;34.30;;
9052;SDS011;4561;47.450;7.516;2022-12-18T15:00:03;40.33;;;28.80;;
9052;SDS011;4561;47.450;7.516;2022-12-18T15:03:27;52.47;;;35.17;;
9052;SDS011;4561;47.450;7.516;2022-12-18T15:06:47;54.43;;;34.00;;
9052;SDS011;4561;47.450;7.516;2022-12-18T15:13:33;53.97;;;38.07;;
9052;SDS011;4561;47.450;7.516;2022-12-18T15:16:53;52.50;;;35.77;;
9052;SDS011;4561;47.450;7.516;2022-12-18T15:20:17;51.47;;;39.67;;
9052;SDS011;4561;47.450;7.516;2022-12-18T15:23:45;44.00;;;32.73;;
9052;SDS011;4561;47.450;7.516;2022-12-18T15:27:22;48.40;;;36.97;;
9052;SDS011;4561;47.450;7.516;2022-12-18T15:31:00;31.03;;;24.17;;
9052;SDS011;4561;47.450;7.516;2022-12-18T15:34:42;60.03;;;41.00;;
9052;SDS011;4561;47.450;7.516;2022-12-18T15:38:02;65.27;;;43.60;;
9052;SDS011;4561;47.450;7.516;2022-12-18T15:41:23;64.03;;;43.37;;
9052;SDS011;4561;47.450;7.516;2022-12-18T15:44:43;88.20;;;60.67;;
9052;SDS011;4561;47.450;7.516;2022-12-18T15:48:24;55.67;;;41.43;;
9052;SDS011;4561;47.450;7.516;2022-12-18T15:51:45;40.13;;;29.27;;
9052;SDS011;4561;47.450;7.516;2022-12-18T15:55:13;31.97;;;23.03;;
9052;SDS011;4561;47.450;7.516;2022-12-18T15:58:53;29.17;;;23.20;;
9052;SDS011;4561;47.450;7.516;2022-12-18T16:02:15;27.10;;;21.30;;
9052;SDS011;4561;47.450;7.516;2022-12-18T16:05:37;29.17;;;21.50;;
9052;SDS011;4561;47.450;7.516;2022-12-18T16:08:57;32.87;;;22.80;;
9052;SDS011;4561;47.450;7.516;2022-12-18T16:12:19;44.00;;;28.40;;
9052;SDS011;4561;47.450;7.516;2022-12-18T16:15:41;30.83;;;21.33;;
9052;SDS011;4561;47.450;7.516;2022-12-18T16:19:02;26.93;;;20.70;;
9052;SDS011;4561;47.450;7.516;2022-12-18T16:22:23;28.63;;;21.80;;
9052;SDS011;4561;47.450;7.516;2022-12-18T16:25:45;23.27;;;18.63;;
9052;SDS011;4561;47.450;7.516;2022-12-18T16:29:06;27.13;;;21.60;;
9052;SDS011;4561;47.450;7.516;2022-12-18T16:32:26;27.43;;;21.90;;
9052;SDS011;4561;47.450;7.516;2022-12-18T16:35:50;26.47;;;19.50;;
9052;SDS011;4561;47.450;7.516;2022-12-18T16:39:11;27.30;;;21.57;;
9052;SDS011;4561;47.450;7.516;2022-12-18T16:42:32;28.20;;;20.50;;
9052;SDS011;4561;47.450;7.516;2022-12-18T16:45:52;27.77;;;22.70;;
9052;SDS011;4561;47.450;7.516;2022-12-18T16:49:17;31.37;;;24.70;;
9052;SDS011;4561;47.450;7.516;2022-12-18T16:52:38;34.27;;;24.43;;
9052;SDS011;4561;47.450;7.516;2022-12-18T16:55:58;38.87;;;28.40;;
9052;SDS011;4561;47.450;7.516;2022-12-18T16:59:19;46.57;;;34.47;;
9052;SDS011;4561;47.450;7.516;2022-12-18T17:02:41;48.27;;;35.33;;
9052;SDS011;4561;47.450;7.516;2022-12-18T17:06:05;29.90;;;24.00;;
9052;SDS011;4561;47.450;7.516;2022-12-18T17:09:26;45.13;;;31.57;;
9052;SDS011;4561;47.450;7.516;2022-12-18T17:12:46;56.10;;;41.60;;
9052;SDS011;4561;47.450;7.516;2022-12-18T17:16:07;45.10;;;32.97;;
9052;SDS011;4561;47.450;7.516;2022-12-18T17:19:28;44.07;;;31.53;;
9052;SDS011;4561;47.450;7.516;2022-12-18T17:22:49;42.67;;;32.93;;
9052;SDS011;4561;47.450;7.516;2022-12-18T17:26:13;34.00;;;26.50;;
9052;SDS011;4561;47.450;7.516;2022-12-18T17:29:33;35.87;;;30.40;;
9052;SDS011;4561;47.450;7.516;2022-12-18T17:32:54;31.23;;;25.50;;
9052;SDS011;4561;47.450;7.516;2022-12-18T17:36:14;24.27;;;19.60;;
9052;SDS011;4561;47.450;7.516;2022-12-18T17:39:35;25.50;;;20.07;;
9052;SDS011;4561;47.450;7.516;2022-12-18T17:42:56;26.03;;;19.10;;
9052;SDS011;4561;47.450;7.516;2022-12-18T17:46:16;26.13;;;19.90;;
9052;SDS011;4561;47.450;7.516;2022-12-18T17:49:37;25.87;;;20.13;;
9052;SDS011;4561;47.450;7.516;2022-12-18T17:53:00;25.87;;;19.23;;
9052;SDS011;4561;47.450;7.516;2022-12-18T17:56:23;36.40;;;25.83;;
9052;SDS011;4561;47.450;7.516;2022-12-18T17:59:44;195.53;;;166.03;;
9052;SDS011;4561;47.450;7.516;2022-12-18T18:03:04;22.47;;;18.57;;
9052;SDS011;4561;47.450;7.516;2022-12-18T18:06:25;21.83;;;17.03;;
9052;SDS011;4561;47.450;7.516;2022-12-18T18:09:45;20.87;;;16.20;;
9052;SDS011;4561;47.450;7.516;2022-12-18T18:13:08;25.47;;;19.83;;
9052;SDS011;4561;47.450;7.516;2022-12-18T18:16:56;30.67;;;22.87;;
9052;SDS011;4561;47.450;7.516;2022-12-18T18:20:17;26.33;;;20.77;;
9052;SDS011;4561;47.450;7.516;2022-12-18T18:23:37;29.87;;;22.93;;
9052;SDS011;4561;47.450;7.516;2022-12-18T18:27:00;28.10;;;21.67;;
9052;SDS011;4561;47.450;7.516;2022-12-18T18:30:20;40.83;;;29.77;;
9052;SDS011;4561;47.450;7.516;2022-12-18T18:33:43;39.80;;;29.37;;
9052;SDS011;4561;47.450;7.516;2022-12-18T18:37:04;39.10;;;29.23;;
9052;SDS011;4561;47.450;7.516;2022-12-18T18:40:24;36.53;;;27.43;;
9052;SDS011;4561;47.450;7.516;2022-12-18T18:43:45;32.50;;;25.00;;
9052;SDS011;4561;47.450;7.516;2022-12-18T18:47:05;52.23;;;37.47;;
9052;SDS011;4561;47.450;7.516;2022-12-18T18:50:28;36.93;;;26.27;;
9052;SDS011;4561;47.450;7.516;2022-12-18T18:53:49;28.10;;;21.37;;
9052;SDS011;4561;47.450;7.516;2022-12-18T18:57:11;30.97;;;23.53;;
9052;SDS011;4561;47.450;7.516;2022-12-18T19:00:34;44.90;;;34.53;;
9052;SDS011;4561;47.450;7.516;2022-12-18T19:03:54;44.33;;;31.57;;
9052;SDS011;4561;47.450;7.516;2022-12-18T19:07:17;44.10;;;30.23;;
9052;SDS011;4561;47.450;7.516;2022-12-18T19:10:39;53.53;;;37.07;;
9052;SDS011;4561;47.450;7.516;2022-12-18T19:14:02;45.80;;;32.07;;
9052;SDS011;4561;47.450;7.516;2022-12-18T19:17:24;33.93;;;24.23;;
9052;SDS011;4561;47.450;7.516;2022-12-18T19:20:52;33.53;;;24.50;;
9052;SDS011;4561;47.450;7.516;2022-12-18T19:24:21;46.67;;;32.37;;
9052;SDS011;4561;47.450;7.516;2022-12-18T19:27:42;34.83;;;25.53;;
9052;SDS011;4561;47.450;7.516;2022-12-18T19:31:05;36.07;;;26.40;;
9052;SDS011;4561;47.450;7.516;2022-12-18T19:34:27;37.63;;;28.60;;
9052;SDS011;4561;47.450;7.516;2022-12-18T19:37:49;98.07;;;75.83;;
9052;SDS011;4561;47.450;7.516;2022-12-18T19:41:13;63.73;;;49.97;;
9052;SDS011;4561;47.450;7.516;2022-12-18T19:44:34;49.07;;;39.10;;
9052;SDS011;4561;47.450;7.516;2022-12-18T19:47:55;53.60;;;37.83;;
9052;SDS011;4561;47.450;7.516;2022-12-18T19:51:16;54.83;;;40.03;;
9052;SDS011;4561;47.450;7.516;2022-12-18T19:54:38;60.33;;;43.50;;
9052;SDS011;4561;47.450;7.516;2022-12-18T19:58:03;48.70;;;35.77;;
9052;SDS011;4561;47.450;7.516;2022-12-18T20:01:24;41.63;;;30.23;;
9052;SDS011;4561;47.450;7.516;2022-12-18T20:04:45;23.30;;;17.57;;
9052;SDS011;4561;47.450;7.516;2022-12-18T20:08:08;25.57;;;19.80;;
9052;SDS011;4561;47.450;7.516;2022-12-18T20:11:28;54.57;;;39.30;;
9052;SDS011;4561;47.450;7.516;2022-12-18T20:14:49;44.73;;;33.00;;
9052;SDS011;4561;47.450;7.516;2022-12-18T20:18:10;41.43;;;31.87;;
9052;SDS011;4561;47.450;7.516;2022-12-18T20:21:32;50.90;;;37.70;;
9052;SDS011;4561;47.450;7.516;2022-12-18T20:24:53;60.10;;;41.57;;
9052;SDS011;4561;47.450;7.516;2022-12-18T20:28:13;74.23;;;50.27;;
9052;SDS011;4561;47.450;7.516;2022-12-18T20:31:33;57.17;;;42.43;;
9052;SDS011;4561;47.450;7.516;2022-12-18T20:34:56;44.60;;;33.83;;
9052;SDS011;4561;47.450;7.516;2022-12-18T20:38:16;35.17;;;25.87;;
9052;SDS011;4561;47.450;7.516;2022-12-18T20:41:37;19.83;;;15.43;;
9052;SDS011;4561;47.450;7.516;2022-12-18T20:44:58;26.87;;;18.70;;
9052;SDS011;4561;47.450;7.516;2022-12-18T20:48:18;43.00;;;30.73;;
9052;SDS011;4561;47.450;7.516;2022-12-18T20:51:38;38.43;;;27.97;;
9052;SDS011;4561;47.450;7.516;2022-12-18T20:54:59;35.47;;;26.03;;
9052;SDS011;4561;47.450;7.516;2022-12-18T20:58:19;34.50;;;25.40;;
9052;SDS011;4561;47.450;7.516;2022-12-18T21:01:40;35.43;;;25.83;;
9052;SDS011;4561;47.450;7.516;2022-12-18T21:05:03;43.50;;;31.27;;
9052;SDS011;4561;47.450;7.516;2022-12-18T21:08:24;41.67;;;31.07;;
9052;SDS011;4561;47.450;7.516;2022-12-18T21:11:44;40.27;;;30.90;;
9052;SDS011;4561;47.450;7.516;2022-12-18T21:15:23;25.27;;;18.37;;
9052;SDS011;4561;47.450;7.516;2022-12-18T21:18:44;36.33;;;27.47;;
9052;SDS011;4561;47.450;7.516;2022-12-18T21:22:04;28.93;;;20.50;;
9052;SDS011;4561;47.450;7.516;2022-12-18T21:25:28;31.10;;;22.97;;
9052;SDS011;4561;47.450;7.516;2022-12-18T21:28:52;31.97;;;23.33;;
9052;SDS011;4561;47.450;7.516;2022-12-18T21:32:16;25.00;;;18.37;;
9052;SDS011;4561;47.450;7.516;2022-12-18T21:35:36;16.67;;;13.10;;
9052;SDS011;4561;47.450;7.516;2022-12-18T21:38:57;12.83;;;10.07;;
9052;SDS011;4561;47.450;7.516;2022-12-18T21:42:17;11.07;;;8.90;;
9052;SDS011;4561;47.450;7.516;2022-12-18T21:45:56;11.27;;;9.13;;
9052;SDS011;4561;47.450;7.516;2022-12-18T21:49:21;11.20;;;9.17;;
9052;SDS011;4561;47.450;7.516;2022-12-18T21:52:41;13.70;;;9.10;;
9052;SDS011;4561;47.450;7.516;2022-12-18T21:56:06;18.97;;;14.80;;
9052;SDS011;4561;47.450;7.516;2022-12-18T21:59:38;25.60;;;19.50;;
9052;SDS011;4561;47.450;7.516;2022-12-18T22:03:01;23.00;;;17.40;;
9052;SDS011;4561;47.450;7.516;2022-12-18T22:06:21;32.70;;;22.83;;
9052;SDS011;4561;47.450;7.516;2022-12-18T22:09:42;29.33;;;21.97;;
9052;SDS011;4561;47.450;7.516;2022-12-18T22:13:05;26.60;;;20.20;;